Time;durP1;ratioP1;P1;durP2;ratioP2;P2;SDS_P1;SDS_P2;PMS_P1;PMS_P2;Temp;Humidity;BMP_temperature;BMP_pressure;BME280_temperature;BME280_humidity;BME280_pressure;Samples;Min_cycle;Max_cycle;Signal;HPM_P1;HPM_P2
2023/06/18 00:00:11;;;;;;;45.97;31.80;;;12.70;99.90;;;;;;4790547;29;20058;-74
2023/06/18 00:02:40;;;;;;;45.35;31.38;;;12.80;99.90;;;;;;4761900;29;20476;-78
2023/06/18 00:05:08;;;;;;;47.92;30.45;;;12.80;99.90;;;;;;4769845;30;20128;-76
2023/06/18 00:07:35;;;;;;;46.75;30.65;;;12.80;99.90;;;;;;4763480;29;20093;-78
2023/06/18 00:10:03;;;;;;;40.20;29.75;;;12.80;99.90;;;;;;4770085;30;20538;-75
2023/06/18 00:12:28;;;;;;;44.22;31.15;;;12.70;99.90;;;;;;4789466;29;20066;-75
2023/06/18 00:14:54;;;;;;;42.08;29.48;;;12.80;99.90;;;;;;4785817;29;20418;-77
2023/06/18 00:17:21;;;;;;;40.25;27.80;;;12.80;99.90;;;;;;4786592;29;20143;-78
2023/06/18 00:19:47;;;;;;;42.92;31.38;;;12.70;99.90;;;;;;4776839;29;20058;-75
2023/06/18 00:22:14;;;;;;;38.40;28.02;;;12.70;99.90;;;;;;4791491;29;20070;-77
2023/06/18 00:24:40;;;;;;;36.50;27.48;;;12.70;99.90;;;;;;4762209;29;20082;-78
2023/06/18 00:27:06;;;;;;;38.30;27.33;;;12.70;99.90;;;;;;4771663;29;20055;-80
2023/06/18 00:29:35;;;;;;;34.22;25.77;;;12.60;99.90;;;;;;4791983;29;20058;-75
2023/06/18 00:32:03;;;;;;;37.05;27.15;;;12.60;99.90;;;;;;4782307;29;20106;-76
2023/06/18 00:34:32;;;;;;;35.42;28.10;;;12.50;99.90;;;;;;4786630;29;20071;-80
2023/06/18 00:37:09;;;;;;;35.45;25.80;;;12.50;99.90;;;;;;4785668;29;20074;-78
2023/06/18 00:39:38;;;;;;;35.78;26.70;;;12.40;99.90;;;;;;4779597;29;20055;-80
2023/06/18 00:42:07;;;;;;;30.98;24.33;;;12.40;99.90;;;;;;4775953;29;20066;-80
2023/06/18 00:44:33;;;;;;;32.92;25.63;;;12.40;99.90;;;;;;4768122;29;20066;-77
2023/06/18 00:47:00;;;;;;;30.25;22.52;;;12.30;99.90;;;;;;4776563;29;20754;-80
2023/06/18 00:49:32;;;;;;;34.05;24.90;;;12.30;99.90;;;;;;4791906;29;20078;-79
2023/06/18 00:51:59;;;;;;;28.83;22.58;;;12.30;99.90;;;;;;4770623;29;20056;-75
2023/06/18 00:54:28;;;;;;;28.38;22.27;;;12.20;99.90;;;;;;4779977;29;20055;-82
2023/06/18 00:56:59;;;;;;;38.78;27.35;;;12.20;99.90;;;;;;4782798;29;20121;-77
2023/06/18 00:59:27;;;;;;;30.65;24.20;;;12.10;99.90;;;;;;4755127;29;20069;-78
2023/06/18 01:01:55;;;;;;;33.00;24.13;;;12.10;99.90;;;;;;4787371;29;20448;-80
2023/06/18 01:04:25;;;;;;;33.20;25.90;;;12.10;99.90;;;;;;4787829;29;20635;-81
2023/06/18 01:06:54;;;;;;;35.13;26.80;;;12.10;99.90;;;;;;4782909;29;20501;-77
2023/06/18 01:09:27;;;;;;;34.97;25.52;;;12.10;99.90;;;;;;4786709;29;20073;-78
2023/06/18 01:11:55;;;;;;;33.08;24.15;;;12.10;99.90;;;;;;4775227;29;20151;-78
2023/06/18 01:14:28;;;;;;;31.85;24.80;;;12.00;99.90;;;;;;4777278;29;20147;-75
2023/06/18 01:16:59;;;;;;;31.48;25.55;;;12.00;99.90;;;;;;4778167;29;20077;-77
2023/06/18 01:19:47;;;;;;;28.58;22.40;;;12.00;99.90;;;;;;4784455;29;20779;-78
2023/06/18 01:22:19;;;;;;;26.50;19.25;;;11.90;99.90;;;;;;4782401;29;20073;-78
2023/06/18 01:24:55;;;;;;;25.55;19.15;;;11.80;99.90;;;;;;4760802;29;20072;-79
2023/06/18 01:27:24;;;;;;;17.08;14.65;;;11.80;99.90;;;;;;4786852;29;20158;-80
2023/06/18 01:29:51;;;;;;;17.65;15.23;;;11.80;99.90;;;;;;4781782;29;20852;-79
2023/06/18 01:32:19;;;;;;;18.73;15.43;;;11.70;99.90;;;;;;4771406;29;20740;-76
2023/06/18 01:34:45;;;;;;;27.00;19.63;;;11.70;99.90;;;;;;4767891;29;20124;-79
2023/06/18 01:37:26;;;;;;;27.52;20.92;;;11.60;99.90;;;;;;4775877;29;20067;-77
2023/06/18 01:40:08;;;;;;;22.77;18.13;;;11.60;99.90;;;;;;4769180;29;20062;-74
2023/06/18 01:42:40;;;;;;;29.17;22.10;;;11.60;99.90;;;;;;4780912;29;20055;-80
2023/06/18 01:45:13;;;;;;;82.80;29.75;;;10.80;99.90;;;;;;4788701;29;20067;-81
2023/06/18 01:47:42;;;;;;;98.38;27.90;;;11.40;99.90;;;;;;4765754;30;20689;-79
2023/06/18 01:50:10;;;;;;;120.85;28.42;;;11.40;99.90;;;;;;4747530;29;1139955;-78
2023/06/18 01:52:39;;;;;;;36.80;29.88;;;11.30;99.90;;;;;;4756210;29;20123;-77
2023/06/18 01:55:06;;;;;;;32.28;25.00;;;11.30;99.90;;;;;;4782479;29;20828;-75
2023/06/18 01:57:33;;;;;;;37.10;28.50;;;11.20;99.90;;;;;;4771128;29;20065;-76
2023/06/18 01:59:58;;;;;;;28.58;23.10;;;11.20;99.90;;;;;;4785184;29;20141;-78
2023/06/18 02:02:25;;;;;;;29.52;22.58;;;11.10;99.90;;;;;;4768571;29;20066;-79
2023/06/18 02:04:50;;;;;;;36.67;27.92;;;11.20;99.90;;;;;;4784513;29;20059;-82
2023/06/18 02:07:16;;;;;;;37.08;27.20;;;11.20;99.90;;;;;;4766850;29;20062;-81
2023/06/18 02:09:42;;;;;;;135.05;22.63;;;11.10;99.90;;;;;;4790088;29;20133;-76
2023/06/18 02:12:09;;;;;;;144.00;18.70;;;11.10;99.90;;;;;;4790572;29;20587;-78
2023/06/18 02:14:34;;;;;;;70.05;19.77;;;11.10;99.90;;;;;;4788704;29;20055;-76
2023/06/18 02:17:01;;;;;;;97.78;19.08;;;11.10;99.90;;;;;;4788260;29;20097;-79
2023/06/18 02:19:27;;;;;;;82.25;19.40;;;11.00;99.90;;;;;;4789103;29;20094;-81
2023/06/18 02:21:53;;;;;;;30.75;19.23;;;11.00;99.90;;;;;;4760424;29;20550;-83
2023/06/18 02:24:19;;;;;;;51.55;21.00;;;11.10;99.90;;;;;;4786803;29;20104;-74
2023/06/18 02:26:45;;;;;;;83.95;21.83;;;11.10;99.90;;;;;;4769459;29;20063;-78
2023/06/18 02:29:11;;;;;;;55.97;17.42;;;11.10;99.90;;;;;;4772318;29;20069;-72
2023/06/18 02:31:37;;;;;;;65.25;17.02;;;11.10;99.90;;;;;;4767474;29;20772;-77
2023/06/18 02:34:03;;;;;;;45.38;16.52;;;11.10;99.90;;;;;;4770501;29;20101;-74
2023/06/18 02:36:28;;;;;;;316.92;24.23;;;11.10;99.90;;;;;;4765556;29;20433;-76
2023/06/18 02:38:55;;;;;;;133.68;25.30;;;11.10;99.90;;;;;;4789404;29;20067;-76
2023/06/18 02:41:21;;;;;;;78.65;22.23;;;11.10;99.90;;;;;;4778160;29;20070;-75
2023/06/18 02:43:50;;;;;;;60.80;24.10;;;11.10;99.90;;;;;;4791265;29;20144;-75
2023/06/18 02:46:17;;;;;;;178.10;24.77;;;11.20;99.90;;;;;;4785581;29;20098;-79
2023/06/18 02:48:43;;;;;;;55.17;24.98;;;11.20;99.90;;;;;;4775814;29;20373;-80
2023/06/18 02:51:10;;;;;;;160.90;23.08;;;11.20;99.90;;;;;;4772911;29;20059;-71
2023/06/18 02:53:36;;;;;;;245.85;22.88;;;11.30;99.90;;;;;;4784821;29;20078;-72
2023/06/18 02:56:02;;;;;;;305.15;25.42;;;11.20;99.90;;;;;;4775152;29;20510;-76
2023/06/18 02:58:28;;;;;;;184.80;24.67;;;11.30;99.90;;;;;;4772618;29;20614;-75
2023/06/18 03:00:55;;;;;;;193.05;23.60;;;11.20;99.90;;;;;;4773261;29;20145;-78
2023/06/18 03:03:21;;;;;;;213.85;25.92;;;11.30;99.90;;;;;;4786426;29;20524;-72
2023/06/18 03:05:47;;;;;;;183.32;23.08;;;11.30;99.90;;;;;;4762100;29;20062;-77
2023/06/18 03:08:13;;;;;;;159.40;21.48;;;11.30;99.90;;;;;;4792328;29;20066;-80
2023/06/18 03:10:40;;;;;;;144.73;21.90;;;11.30;99.90;;;;;;4793085;29;20116;-80
2023/06/18 03:13:06;;;;;;;242.27;21.00;;;11.20;99.90;;;;;;4789652;29;20063;-81
2023/06/18 03:15:32;;;;;;;138.10;21.50;;;11.30;99.90;;;;;;4777126;29;20516;-75
2023/06/18 03:17:58;;;;;;;145.15;25.15;;;11.30;99.90;;;;;;4788122;29;20059;-76
2023/06/18 03:20:23;;;;;;;147.40;26.48;;;11.30;99.90;;;;;;4775841;29;20062;-77
2023/06/18 03:22:49;;;;;;;127.10;27.73;;;11.30;99.90;;;;;;4783424;29;20059;-85
2023/06/18 03:25:15;;;;;;;239.65;28.20;;;11.40;99.90;;;;;;4789247;29;20141;-78
2023/06/18 03:27:42;;;;;;;183.15;30.55;;;11.40;99.90;;;;;;4770379;29;20087;-78
2023/06/18 03:30:08;;;;;;;183.60;30.10;;;11.40;99.90;;;;;;4768963;29;20063;-76
2023/06/18 03:32:34;;;;;;;107.85;28.52;;;11.50;99.90;;;;;;4775842;29;20062;-78
2023/06/18 03:35:00;;;;;;;77.35;27.98;;;11.60;99.90;;;;;;4793043;29;20063;-79
2023/06/18 03:37:27;;;;;;;95.18;28.98;;;11.60;99.90;;;;;;4791549;29;20920;-81
2023/06/18 03:39:53;;;;;;;59.83;28.38;;;11.70;99.90;;;;;;4791350;29;20145;-75
2023/06/18 03:42:18;;;;;;;54.03;28.80;;;11.80;99.90;;;;;;4787964;29;20071;-76
2023/06/18 03:44:44;;;;;;;240.18;28.80;;;11.90;99.90;;;;;;4785746;29;20097;-77
2023/06/18 03:47:10;;;;;;;173.43;31.45;;;11.90;99.90;;;;;;4786866;29;20196;-81
2023/06/18 03:49:36;;;;;;;105.35;30.45;;;12.00;99.90;;;;;;4776564;29;20888;-78
2023/06/18 03:52:02;;;;;;;150.95;32.63;;;12.00;99.90;;;;;;4778374;29;20131;-83
2023/06/18 03:54:28;;;;;;;188.32;33.75;;;10.60;99.90;;;;;;4774166;29;20062;-80
2023/06/18 03:56:54;;;;;;;181.68;34.65;;;12.10;99.90;;;;;;4772105;29;20055;-91
2023/06/18 03:59:20;;;;;;;259.90;35.65;;;12.20;99.90;;;;;;4775399;29;20054;-79
2023/06/18 04:01:46;;;;;;;210.50;35.20;;;12.20;99.90;;;;;;4782637;29;20170;-76
2023/06/18 04:04:11;;;;;;;282.40;37.72;;;13.60;99.90;;;;;;4787121;29;20091;-84
2023/06/18 04:06:37;;;;;;;261.35;36.47;;;12.30;99.90;;;;;;4790619;29;20059;-81
2023/06/18 04:09:03;;;;;;;214.93;34.97;;;12.30;99.90;;;;;;4777253;29;20627;-86
2023/06/18 04:11:29;;;;;;;187.13;35.33;;;12.40;99.90;;;;;;4775429;29;20101;-79
2023/06/18 04:13:54;;;;;;;202.38;37.17;;;13.00;99.90;;;;;;4769928;30;20119;-81
2023/06/18 04:16:20;;;;;;;203.73;37.05;;;12.60;99.90;;;;;;4757356;29;20205;-83
2023/06/18 04:18:46;;;;;;;201.43;39.53;;;12.60;99.90;;;;;;4772022;29;20066;-78
2023/06/18 04:21:11;;;;;;;163.50;36.17;;;12.70;99.90;;;;;;4768570;29;20490;-79
2023/06/18 04:23:39;;;;;;;152.73;37.72;;;11.00;99.90;;;;;;4786687;29;20078;-81
2023/06/18 04:26:05;;;;;;;222.80;40.20;;;12.90;99.90;;;;;;4784371;29;20067;-81
2023/06/18 04:28:31;;;;;;;136.90;35.38;;;13.00;99.90;;;;;;4773827;29;20123;-82
2023/06/18 04:30:56;;;;;;;152.98;38.85;;;13.10;99.90;;;;;;4776041;29;20364;-80
2023/06/18 04:33:22;;;;;;;206.00;40.22;;;13.10;99.90;;;;;;4776412;29;20958;-82
2023/06/18 04:35:48;;;;;;;129.73;39.25;;;13.20;99.90;;;;;;4766123;29;20063;-80
2023/06/18 04:38:14;;;;;;;129.05;39.72;;;13.30;99.90;;;;;;4774124;29;20101;-80
2023/06/18 04:40:39;;;;;;;128.68;38.97;;;13.30;99.90;;;;;;4773673;29;20139;-81
2023/06/18 04:43:05;;;;;;;86.38;39.92;;;13.40;99.90;;;;;;4789321;29;20224;-82
2023/06/18 04:45:31;;;;;;;93.15;37.35;;;13.50;99.90;;;;;;4771510;29;20063;-82
2023/06/18 04:47:57;;;;;;;80.30;37.88;;;13.60;99.90;;;;;;4772384;29;20101;-79
2023/06/18 04:50:23;;;;;;;71.07;36.70;;;13.70;99.90;;;;;;4765061;29;20347;-80
2023/06/18 04:52:48;;;;;;;70.30;36.70;;;13.80;99.90;;;;;;4781898;29;20074;-78
2023/06/18 04:55:14;;;;;;;82.25;38.45;;;14.00;99.90;;;;;;4774002;29;20061;-83
2023/06/18 04:57:40;;;;;;;93.63;37.80;;;14.10;99.90;;;;;;4776460;29;20097;-81
2023/06/18 05:00:08;;;;;;;65.97;36.65;;;14.20;99.90;;;;;;4790308;29;20108;-76
2023/06/18 05:02:34;;;;;;;71.25;36.60;;;14.30;99.90;;;;;;4775473;29;20730;-79
2023/06/18 05:05:00;;;;;;;56.70;34.47;;;14.40;99.90;;;;;;4788395;29;20067;-82
2023/06/18 05:07:26;;;;;;;53.05;33.40;;;14.50;99.90;;;;;;4790178;29;20138;-82
2023/06/18 05:09:52;;;;;;;54.60;34.50;;;14.70;99.90;;;;;;4787904;29;20091;-84
2023/06/18 05:12:17;;;;;;;50.17;32.88;;;14.90;99.90;;;;;;4775028;29;20097;-86
2023/06/18 05:14:43;;;;;;;45.45;32.17;;;15.10;99.90;;;;;;4788893;29;20123;-81
2023/06/18 05:17:09;;;;;;;51.15;34.58;;;15.20;99.90;;;;;;4794561;29;20071;-81
2023/06/18 05:19:35;;;;;;;45.33;31.52;;;15.40;99.90;;;;;;4770857;29;20067;-84
2023/06/18 05:22:00;;;;;;;51.40;33.63;;;15.60;99.90;;;;;;4776475;29;20058;-87
2023/06/18 05:24:26;;;;;;;39.75;31.00;;;15.90;99.90;;;;;;4769951;29;20295;-86
2023/06/18 05:26:52;;;;;;;46.95;31.95;;;13.90;99.90;;;;;;4774090;29;20063;-83
2023/06/18 05:29:18;;;;;;;37.80;28.58;;;16.40;99.90;;;;;;4778532;29;20549;-84
2023/06/18 05:31:44;;;;;;;41.40;30.48;;;16.50;99.90;;;;;;4791257;29;20066;-84
2023/06/18 05:34:10;;;;;;;40.17;29.17;;;16.60;99.90;;;;;;4775806;29;20066;-85
2023/06/18 05:36:36;;;;;;;39.30;29.58;;;14.30;99.90;;;;;;4758639;29;20070;-81
2023/06/18 05:39:02;;;;;;;37.08;28.67;;;16.80;99.90;;;;;;4774871;29;20047;-81
2023/06/18 05:41:28;;;;;;;34.67;26.55;;;17.00;99.90;;;;;;4771296;30;20062;-83
2023/06/18 05:43:54;;;;;;;35.60;28.77;;;17.10;99.90;;;;;;4774405;29;20063;-82
2023/06/18 05:46:20;;;;;;;35.38;27.58;;;17.50;99.90;;;;;;4790077;29;20058;-80
2023/06/18 05:48:46;;;;;;;29.17;25.08;;;18.10;99.90;;;;;;4783555;29;20066;-77
2023/06/18 05:51:14;;;;;;;30.95;25.08;;;18.80;99.90;;;;;;4766642;29;20104;-76
2023/06/18 05:53:42;;;;;;;27.52;24.52;;;19.60;99.90;;;;;;4765722;29;20502;-77
2023/06/18 05:56:08;;;;;;;27.23;23.38;;;20.40;98.70;;;;;;4772701;29;20061;-81
2023/06/18 05:58:35;;;;;;;25.75;22.98;;;21.10;97.10;;;;;;4785760;29;20071;-79
2023/06/18 06:01:02;;;;;;;27.13;23.38;;;21.80;95.40;;;;;;4770276;29;20566;-76
2023/06/18 06:03:29;;;;;;;24.42;21.48;;;22.50;93.90;;;;;;4773430;29;20059;-76
2023/06/18 06:05:55;;;;;;;23.95;21.33;;;23.20;92.50;;;;;;4780891;29;20595;-77
2023/06/18 06:08:21;;;;;;;21.38;19.10;;;23.90;91.30;;;;;;4778039;29;20162;-81
2023/06/18 06:10:47;;;;;;;23.65;21.15;;;24.50;90.00;;;;;;4781146;29;20062;-85
2023/06/18 06:13:13;;;;;;;22.10;19.77;;;23.50;86.50;;;;;;4785315;29;20051;-82
2023/06/18 06:15:38;;;;;;;23.75;19.05;;;25.50;84.60;;;;;;4785220;29;20063;-79
2023/06/18 06:18:04;;;;;;;21.10;18.80;;;25.90;82.40;;;;;;4785995;29;20073;-80
2023/06/18 06:20:30;;;;;;;27.73;19.40;;;26.20;81.10;;;;;;4773084;29;20816;-80
2023/06/18 06:22:56;;;;;;;21.42;17.90;;;26.80;79.60;;;;;;4779953;29;20067;-77
2023/06/18 06:25:25;;;;;;;19.55;17.55;;;27.30;77.00;;;;;;4771348;29;20068;-78
2023/06/18 06:27:51;;;;;;;19.50;17.60;;;27.70;74.70;;;;;;4782357;29;20074;-74
2023/06/18 06:30:22;;;;;;;18.63;16.63;;;28.20;73.60;;;;;;4787471;29;20061;-73
2023/06/18 06:32:53;;;;;;;18.50;16.60;;;28.60;71.30;;;;;;4768257;29;20261;-73
2023/06/18 06:35:21;;;;;;;18.95;17.05;;;28.90;69.90;;;;;;4790267;29;20070;-75
2023/06/18 06:37:47;;;;;;;17.83;15.98;;;29.20;68.70;;;;;;4770786;29;20055;-74
2023/06/18 06:40:13;;;;;;;16.83;15.07;;;29.70;67.80;;;;;;4787402;29;20063;-77
2023/06/18 06:42:38;;;;;;;17.17;15.38;;;29.80;66.20;;;;;;4766780;29;20063;-77
2023/06/18 06:45:06;;;;;;;16.50;14.90;;;30.10;65.50;;;;;;4786695;29;20063;-78
2023/06/18 06:47:33;;;;;;;18.13;16.33;;;30.20;64.30;;;;;;4769038;29;20494;-74
2023/06/18 06:49:59;;;;;;;16.42;14.73;;;30.30;63.70;;;;;;4785795;29;20075;-76
2023/06/18 06:52:24;;;;;;;18.52;16.00;;;30.40;64.00;;;;;;4775106;29;20067;-74
2023/06/18 06:54:51;;;;;;;16.92;14.52;;;30.40;62.90;;;;;;4785691;29;20066;-77
2023/06/18 06:57:16;;;;;;;17.15;15.10;;;30.20;62.60;;;;;;4786338;29;20078;-76
2023/06/18 06:59:42;;;;;;;15.85;14.15;;;30.40;61.70;;;;;;4776169;29;20063;-74
2023/06/18 07:02:08;;;;;;;16.55;14.40;;;30.80;60.80;;;;;;4785949;29;20059;-73
2023/06/18 07:04:34;;;;;;;16.77;14.75;;;31.30;59.50;;;;;;4787888;29;21049;-75
2023/06/18 07:07:00;;;;;;;16.40;14.68;;;32.10;59.30;;;;;;4782808;29;20615;-75
2023/06/18 07:09:26;;;;;;;16.10;14.50;;;33.00;57.50;;;;;;4787677;29;20058;-74
2023/06/18 07:11:52;;;;;;;15.70;14.00;;;33.80;56.00;;;;;;4782817;29;20418;-73
2023/06/18 07:14:17;;;;;;;15.55;13.85;;;34.30;54.40;;;;;;4786063;29;20073;-78
2023/06/18 07:16:43;;;;;;;15.82;14.15;;;34.70;53.90;;;;;;4781212;29;20059;-78
2023/06/18 07:19:09;;;;;;;16.15;14.15;;;35.10;52.80;;;;;;4788623;29;20146;-76
2023/06/18 07:21:35;;;;;;;18.40;14.50;;;35.50;51.70;;;;;;4761942;30;20063;-78
2023/06/18 07:24:00;;;;;;;15.18;13.57;;;35.80;51.30;;;;;;4781381;29;20059;-75
2023/06/18 07:26:26;;;;;;;15.65;13.85;;;36.10;51.00;;;;;;4782710;29;20425;-77
2023/06/18 07:28:52;;;;;;;13.82;12.27;;;36.70;50.10;;;;;;4783140;29;20579;-78
2023/06/18 07:31:18;;;;;;;15.25;13.77;;;37.20;49.60;;;;;;4771296;29;20075;-72
2023/06/18 07:33:44;;;;;;;17.45;14.10;;;36.50;49.30;;;;;;4787335;29;20723;-78
2023/06/18 07:36:10;;;;;;;14.60;13.20;;;35.10;49.10;;;;;;4773150;29;20063;-76
2023/06/18 07:38:36;;;;;;;13.80;12.32;;;35.60;49.20;;;;;;4769436;29;20800;-76
2023/06/18 07:41:01;;;;;;;12.63;11.40;;;35.80;50.20;;;;;;4768968;30;20085;-75
2023/06/18 07:43:27;;;;;;;15.50;12.82;;;35.60;49.70;;;;;;4784848;29;20096;-77
2023/06/18 07:45:53;;;;;;;13.07;11.77;;;35.20;49.00;;;;;;4793076;29;20058;-73
2023/06/18 07:48:18;;;;;;;14.48;12.60;;;34.90;49.50;;;;;;4786913;29;20095;-74
2023/06/18 07:50:44;;;;;;;13.68;10.98;;;35.10;49.50;;;;;;4787164;29;20078;-79
2023/06/18 07:53:10;;;;;;;12.63;11.27;;;35.40;50.20;;;;;;4788422;29;20323;-74
2023/06/18 07:55:36;;;;;;;13.65;12.32;;;35.60;49.00;;;;;;4785771;29;20067;-72
2023/06/18 07:58:01;;;;;;;13.07;11.75;;;35.70;48.50;;;;;;4788160;29;20066;-77
2023/06/18 08:00:27;;;;;;;13.98;11.32;;;35.90;48.10;;;;;;4772687;29;20067;-77
2023/06/18 08:02:53;;;;;;;18.10;12.35;;;35.90;48.30;;;;;;4765754;29;20116;-74
2023/06/18 08:05:19;;;;;;;11.93;10.73;;;35.60;48.10;;;;;;4763425;29;20147;-73
2023/06/18 08:07:44;;;;;;;11.98;10.77;;;35.90;48.10;;;;;;4775317;29;20051;-74
2023/06/18 08:10:10;;;;;;;11.93;10.68;;;36.60;47.80;;;;;;4767884;29;20051;-79
2023/06/18 08:12:36;;;;;;;14.02;11.43;;;37.10;47.10;;;;;;4786673;29;20051;-82
2023/06/18 08:15:02;;;;;;;11.63;10.45;;;37.30;45.60;;;;;;4777168;29;20075;-77
2023/06/18 08:17:28;;;;;;;11.25;10.00;;;37.50;44.80;;;;;;4775532;29;20077;-75
2023/06/18 08:19:54;;;;;;;12.85;11.25;;;37.60;45.60;;;;;;4756539;29;20070;-77
2023/06/18 08:22:19;;;;;;;15.82;11.80;;;37.90;45.20;;;;;;4762344;29;20063;-76
2023/06/18 08:24:45;;;;;;;10.52;8.95;;;38.30;44.50;;;;;;4742293;29;20521;-79
2023/06/18 08:27:15;;;;;;;9.32;8.43;;;38.80;44.60;;;;;;4760098;29;20167;-79
2023/06/18 08:29:41;;;;;;;12.35;8.90;;;39.50;44.20;;;;;;4760091;29;20074;-76
2023/06/18 08:32:07;;;;;;;12.05;10.85;;;40.40;43.90;;;;;;4786634;29;20055;-75
2023/06/18 08:34:34;;;;;;;9.98;8.85;;;41.00;41.70;;;;;;4760743;29;20070;-81
2023/06/18 08:37:00;;;;;;;11.02;9.27;;;41.40;41.40;;;;;;4767277;29;20055;-77
2023/06/18 08:39:26;;;;;;;10.27;9.18;;;41.70;41.00;;;;;;4780524;29;20148;-74
2023/06/18 08:42:00;;;;;;;11.70;9.13;;;41.80;40.30;;;;;;4766997;29;20147;-80
2023/06/18 08:44:30;;;;;;;11.65;9.00;;;41.90;40.40;;;;;;4761204;30;20155;-71
2023/06/18 08:47:00;;;;;;;11.50;8.93;;;42.40;40.20;;;;;;4769346;29;20062;-77
2023/06/18 08:49:27;;;;;;;9.20;8.30;;;42.80;40.10;;;;;;4784756;29;20101;-73
2023/06/18 08:52:02;;;;;;;10.48;8.13;;;43.00;39.00;;;;;;4781937;29;20059;-78
2023/06/18 08:54:36;;;;;;;9.00;8.20;;;42.90;38.10;;;;;;4772952;29;20063;-76
2023/06/18 08:57:17;;;;;;;9.38;8.40;;;43.10;38.50;;;;;;4782811;29;20058;-75
2023/06/18 08:59:44;;;;;;;7.95;7.15;;;43.20;38.10;;;;;;4768541;29;20055;-75
2023/06/18 09:02:13;;;;;;;9.30;6.88;;;43.20;37.20;;;;;;4784362;29;20127;-77
2023/06/18 09:04:39;;;;;;;7.57;6.78;;;43.40;37.20;;;;;;4781203;29;20288;-75
2023/06/18 09:07:06;;;;;;;11.15;8.00;;;43.20;36.90;;;;;;4777917;29;20446;-76
2023/06/18 09:09:34;;;;;;;8.68;6.45;;;43.40;36.90;;;;;;4785023;29;20857;-77
2023/06/18 09:12:00;;;;;;;8.20;6.10;;;43.50;36.80;;;;;;4771555;29;20073;-79
2023/06/18 09:14:27;;;;;;;7.25;6.45;;;43.50;37.00;;;;;;4782613;29;20050;-76
2023/06/18 09:16:54;;;;;;;8.07;7.00;;;43.80;37.10;;;;;;4787741;29;20112;-74
2023/06/18 09:19:20;;;;;;;9.27;7.35;;;44.10;35.90;;;;;;4774446;29;20071;-77
2023/06/18 09:21:47;;;;;;;8.30;6.28;;;44.20;36.00;;;;;;4768258;30;20059;-77
2023/06/18 09:24:20;;;;;;;5.95;4.97;;;44.10;35.80;;;;;;4770080;29;20063;-75
2023/06/18 09:26:47;;;;;;;6.55;5.38;;;44.10;36.70;;;;;;4782562;29;20073;-79
2023/06/18 09:29:13;;;;;;;6.07;5.47;;;44.50;36.20;;;;;;4787863;29;20066;-75
2023/06/18 09:31:41;;;;;;;6.25;5.65;;;44.30;35.30;;;;;;4765225;29;20062;-78
2023/06/18 09:34:15;;;;;;;7.88;5.55;;;44.00;35.00;;;;;;4778320;29;20779;-75
2023/06/18 09:36:42;;;;;;;8.23;5.72;;;43.80;35.50;;;;;;4779388;29;20066;-78
2023/06/18 09:39:19;;;;;;;7.40;5.22;;;43.40;36.10;;;;;;4785970;29;20075;-79
2023/06/18 09:41:50;;;;;;;6.35;5.75;;;42.90;34.30;;;;;;4775124;29;20096;-78
2023/06/18 09:44:18;;;;;;;5.43;4.80;;;42.10;35.30;;;;;;4787128;29;20058;-76
2023/06/18 09:47:10;;;;;;;5.75;4.70;;;41.90;35.90;;;;;;4782122;29;20059;-79
2023/06/18 09:49:37;;;;;;;8.35;4.60;;;41.60;36.50;;;;;;4787422;29;20066;-80
2023/06/18 09:52:07;;;;;;;6.85;4.82;;;41.70;36.00;;;;;;4786168;29;20066;-74
2023/06/18 09:54:42;;;;;;;5.72;4.22;;;41.50;35.90;;;;;;4772606;29;20462;-76
2023/06/18 09:57:10;;;;;;;5.72;4.47;;;41.20;36.60;;;;;;4781854;29;20256;-78
2023/06/18 09:59:36;;;;;;;6.18;3.78;;;41.20;36.20;;;;;;4763048;29;20141;-74
2023/06/18 10:02:04;;;;;;;5.35;3.55;;;40.80;35.60;;;;;;4744382;29;20065;-80
2023/06/18 10:04:32;;;;;;;4.95;3.83;;;40.50;36.00;;;;;;4753435;29;20703;-73
2023/06/18 10:07:03;;;;;;;4.68;3.78;;;40.70;36.70;;;;;;4756836;29;20070;-80
2023/06/18 10:09:37;;;;;;;4.75;3.85;;;40.90;35.50;;;;;;4744066;29;20057;-79
2023/06/18 10:12:05;;;;;;;5.60;3.78;;;41.20;35.70;;;;;;4739492;29;21429;-80
2023/06/18 10:14:32;;;;;;;5.47;4.60;;;41.30;35.80;;;;;;4744228;29;20062;-80
2023/06/18 10:17:11;;;;;;;7.18;4.10;;;40.80;35.10;;;;;;4743634;29;20413;-79
2023/06/18 10:19:46;;;;;;;4.60;3.80;;;40.60;36.20;;;;;;4755515;29;20063;-77
2023/06/18 10:22:14;;;;;;;6.55;4.15;;;40.40;35.20;;;;;;4730260;29;22938;-76
2023/06/18 10:24:45;;;;;;;5.60;4.22;;;40.30;35.40;;;;;;4752840;29;20074;-79
2023/06/18 10:27:13;;;;;;;8.98;4.68;;;39.80;36.30;;;;;;4740209;29;20051;-79
2023/06/18 10:29:39;;;;;;;5.13;3.83;;;39.60;35.50;;;;;;4753755;29;20063;-76
2023/06/18 10:32:06;;;;;;;4.90;3.95;;;39.60;36.20;;;;;;4758533;29;20138;-76
2023/06/18 10:34:32;;;;;;;5.22;4.53;;;39.60;35.80;;;;;;4745532;29;20063;-80
2023/06/18 10:36:59;;;;;;;4.47;4.07;;;39.40;36.10;;;;;;4755258;29;20117;-76
2023/06/18 10:39:27;;;;;;;5.32;4.05;;;39.10;35.70;;;;;;4741393;29;20059;-77
2023/06/18 10:41:53;;;;;;;5.10;4.15;;;39.00;37.00;;;;;;4731067;29;20099;-76
2023/06/18 10:44:57;;;;;;;4.90;4.40;;;38.80;35.90;;;;;;4756590;29;20055;-74
2023/06/18 10:47:25;;;;;;;5.40;4.90;;;40.10;38.50;;;;;;4717022;29;20061;-78
2023/06/18 10:50:06;;;;;;;6.13;4.40;;;37.70;37.10;;;;;;4736944;29;20067;-77
2023/06/18 10:52:33;;;;;;;;;;;37.20;36.50;;;;;;4740196;29;20050;-76
2023/06/18 10:55:06;;;;;;;5.40;4.32;;;36.70;38.50;;;;;;4754298;29;19934;-77
2023/06/18 10:57:35;;;;;;;5.70;4.43;;;36.30;37.30;;;;;;4776623;29;20513;-77
2023/06/18 11:00:13;;;;;;;5.90;5.30;;;35.90;38.30;;;;;;4767544;29;20078;-74
2023/06/18 11:02:39;;;;;;;6.47;4.07;;;35.40;37.50;;;;;;4773418;29;20055;-77
2023/06/18 11:05:05;;;;;;;5.43;4.70;;;34.80;37.90;;;;;;4771172;29;20067;-77
2023/06/18 11:07:31;;;;;;;6.57;4.60;;;34.20;39.20;;;;;;4785811;29;20062;-74
2023/06/18 11:09:59;;;;;;;7.10;4.40;;;33.70;40.50;;;;;;4793675;29;20077;-78
2023/06/18 11:12:29;;;;;;;5.65;5.15;;;32.60;40.80;;;;;;4790491;29;20058;-75
2023/06/18 11:15:17;;;;;;;7.00;4.65;;;33.10;41.90;;;;;;4791439;29;20081;-75
2023/06/18 11:17:54;;;;;;;6.65;4.65;;;32.90;41.80;;;;;;4776935;29;20069;-75
2023/06/18 11:20:22;;;;;;;6.80;4.90;;;32.70;40.50;;;;;;4776831;29;20093;-77
2023/06/18 11:22:55;;;;;;;8.23;4.57;;;32.40;42.40;;;;;;4774874;29;20067;-76
2023/06/18 11:25:21;;;;;;;6.28;4.68;;;32.10;42.10;;;;;;4775863;29;20073;-75
2023/06/18 11:27:48;;;;;;;6.20;4.35;;;32.10;42.00;;;;;;4773735;29;20526;-74
2023/06/18 11:30:16;;;;;;;6.78;4.45;;;32.20;41.50;;;;;;4774806;29;20062;-76
2023/06/18 11:32:42;;;;;;;5.65;4.72;;;32.10;41.70;;;;;;4787148;29;20063;-77
2023/06/18 11:35:10;;;;;;;5.85;4.22;;;32.10;42.70;;;;;;4772527;29;20059;-76
2023/06/18 11:37:38;;;;;;;8.52;5.20;;;32.00;42.00;;;;;;4789178;29;20073;-75
2023/06/18 11:40:06;;;;;;;7.45;4.50;;;32.10;41.70;;;;;;4796633;29;20063;-75
2023/06/18 11:42:33;;;;;;;5.65;3.90;;;32.10;42.80;;;;;;4796016;29;20063;-77
2023/06/18 11:45:03;;;;;;;6.35;4.78;;;32.20;42.70;;;;;;4794419;29;20531;-81
2023/06/18 11:47:34;;;;;;;4.88;4.30;;;32.20;42.80;;;;;;4794608;29;20059;-78
2023/06/18 11:50:00;;;;;;;7.30;4.80;;;32.10;42.40;;;;;;4795659;29;20058;-76
2023/06/18 11:52:28;;;;;;;4.68;4.13;;;31.90;42.00;;;;;;4783170;29;20098;-77
2023/06/18 11:55:02;;;;;;;5.85;4.43;;;31.80;42.50;;;;;;4791625;29;20059;-75
2023/06/18 11:57:28;;;;;;;6.07;4.35;;;31.80;42.30;;;;;;4772203;29;20075;-75
2023/06/18 11:59:54;;;;;;;4.70;4.22;;;31.80;43.40;;;;;;4792438;29;20195;-77
2023/06/18 12:02:24;;;;;;;5.47;4.53;;;31.90;43.00;;;;;;4784077;29;20062;-75
2023/06/18 12:04:51;;;;;;;6.17;4.10;;;32.20;41.40;;;;;;4788183;29;20174;-75
2023/06/18 12:07:18;;;;;;;5.28;4.32;;;32.30;41.70;;;;;;4778831;29;20062;-77
2023/06/18 12:09:45;;;;;;;6.05;4.18;;;32.40;41.40;;;;;;4792047;29;20062;-75
2023/06/18 12:12:30;;;;;;;4.22;3.83;;;32.60;42.30;;;;;;4757250;30;20071;-77
2023/06/18 12:15:08;;;;;;;5.60;4.22;;;32.70;41.30;;;;;;4768319;29;20067;-76
2023/06/18 12:17:57;;;;;;;5.38;4.30;;;32.70;39.80;;;;;;4791771;29;20063;-75
2023/06/18 12:20:28;;;;;;;5.05;4.10;;;32.70;40.40;;;;;;4776084;29;20505;-77
2023/06/18 12:22:55;;;;;;;5.60;3.77;;;32.60;40.60;;;;;;4788277;29;20066;-76
2023/06/18 12:25:22;;;;;;;5.68;3.85;;;32.50;41.00;;;;;;4774735;29;20106;-76
2023/06/18 12:27:50;;;;;;;5.18;4.45;;;32.30;42.20;;;;;;4786340;29;20061;-74
2023/06/18 12:30:17;;;;;;;5.30;4.45;;;32.30;42.60;;;;;;4762161;30;20062;-76
2023/06/18 12:33:03;;;;;;;6.35;4.55;;;32.30;42.40;;;;;;4783564;29;20058;-76